sensor_id;sensor_type;location;lat;lon;timestamp;pressure;altitude;pressure_sealevel;temperature;humidity
82388;BME280;72027;47.420;9.310;2024-03-02T00:01:05;92283.13;;;2.13;100.00
82388;BME280;72027;47.420;9.310;2024-03-02T00:03:34;92284.31;;;2.12;100.00
82388;BME280;72027;47.420;9.310;2024-03-02T00:06:02;92289.91;;;2.09;100.00
82388;BME280;72027;47.420;9.310;2024-03-02T00:08:30;92286.75;;;2.10;100.00
82388;BME280;72027;47.420;9.310;2024-03-02T00:10:58;92284.44;;;2.09;100.00
82388;BME280;72027;47.420;9.310;2024-03-02T00:13:29;92284.03;;;2.10;100.00
82388;BME280;72027;47.420;9.310;2024-03-02T00:15:57;92289.91;;;2.09;100.00
82388;BME280;72027;47.420;9.310;2024-03-02T00:18:27;92289.91;;;2.09;100.00
82388;BME280;72027;47.420;9.310;2024-03-02T00:20:55;92291.56;;;2.06;100.00
82388;BME280;72027;47.420;9.310;2024-03-02T00:23:26;92288.16;;;2.02;100.00
82388;BME280;72027;47.420;9.310;2024-03-02T00:25:55;92282.41;;;2.00;99.87
82388;BME280;72027;47.420;9.310;2024-03-02T00:28:24;92284.78;;;1.98;100.00
82388;BME280;72027;47.420;9.310;2024-03-02T00:30:58;92282.19;;;1.94;100.00
82388;BME280;72027;47.420;9.310;2024-03-02T00:33:30;92280.31;;;1.91;100.00
82388;BME280;72027;47.420;9.310;2024-03-02T00:35:59;92279.22;;;1.89;100.00
82388;BME280;72027;47.420;9.310;2024-03-02T00:38:27;92290.13;;;1.89;100.00
82388;BME280;72027;47.420;9.310;2024-03-02T00:40:58;92286.66;;;1.88;100.00
82388;BME280;72027;47.420;9.310;2024-03-02T00:43:44;92294.09;;;1.88;100.00
82388;BME280;72027;47.420;9.310;2024-03-02T00:46:16;92295.28;;;1.87;100.00
82388;BME280;72027;47.420;9.310;2024-03-02T00:48:50;92300.00;;;1.86;100.00
82388;BME280;72027;47.420;9.310;2024-03-02T00:51:19;92285.13;;;1.87;100.00
82388;BME280;72027;47.420;9.310;2024-03-02T00:53:47;92289.72;;;1.90;100.00
82388;BME280;72027;47.420;9.310;2024-03-02T00:56:15;92283.03;;;1.91;99.95
82388;BME280;72027;47.420;9.310;2024-03-02T00:58:43;92285.47;;;1.89;100.00
82388;BME280;72027;47.420;9.310;2024-03-02T01:01:11;92292.88;;;1.89;100.00
82388;BME280;72027;47.420;9.310;2024-03-02T01:03:40;92293.66;;;1.89;100.00
82388;BME280;72027;47.420;9.310;2024-03-02T01:06:09;92295.19;;;1.90;100.00
82388;BME280;72027;47.420;9.310;2024-03-02T01:08:36;92299.88;;;1.90;100.00
82388;BME280;72027;47.420;9.310;2024-03-02T01:11:04;92300.22;;;1.92;100.00
82388;BME280;72027;47.420;9.310;2024-03-02T01:13:32;92292.03;;;1.92;100.00
82388;BME280;72027;47.420;9.310;2024-03-02T01:16:01;92303.69;;;1.92;100.00
82388;BME280;72027;47.420;9.310;2024-03-02T01:18:29;92300.22;;;1.92;100.00
82388;BME280;72027;47.420;9.310;2024-03-02T01:20:58;92310.34;;;1.91;100.00
82388;BME280;72027;47.420;9.310;2024-03-02T01:23:26;92313.06;;;1.91;100.00
82388;BME280;72027;47.420;9.310;2024-03-02T01:25:54;92312.31;;;1.91;100.00
82388;BME280;72027;47.420;9.310;2024-03-02T01:28:22;92315.81;;;1.91;100.00
82388;BME280;72027;47.420;9.310;2024-03-02T01:30:49;92315.06;;;1.91;100.00
82388;BME280;72027;47.420;9.310;2024-03-02T01:33:19;92320.97;;;1.89;100.00
82388;BME280;72027;47.420;9.310;2024-03-02T01:35:47;92317.03;;;1.90;100.00
82388;BME280;72027;47.420;9.310;2024-03-02T01:38:16;92317.78;;;1.91;100.00
82388;BME280;72027;47.420;9.310;2024-03-02T01:40:44;92322.47;;;1.90;100.00
82388;BME280;72027;47.420;9.310;2024-03-02T01:43:12;92324.00;;;1.91;100.00
82388;BME280;72027;47.420;9.310;2024-03-02T01:45:40;92323.56;;;1.93;100.00
82388;BME280;72027;47.420;9.310;2024-03-02T01:48:08;92323.91;;;1.95;100.00
82388;BME280;72027;47.420;9.310;2024-03-02T01:50:35;92329.25;;;1.98;100.00
82388;BME280;72027;47.420;9.310;2024-03-02T01:53:03;92332.75;;;1.99;100.00
82388;BME280;72027;47.420;9.310;2024-03-02T01:55:32;92333.53;;;2.00;100.00
82388;BME280;72027;47.420;9.310;2024-03-02T01:58:01;92328.06;;;2.00;100.00
82388;BME280;72027;47.420;9.310;2024-03-02T02:00:29;92331.56;;;2.00;100.00
82388;BME280;72027;47.420;9.310;2024-03-02T02:02:57;92326.84;;;2.01;100.00
82388;BME280;72027;47.420;9.310;2024-03-02T02:05:25;92326.09;;;2.00;100.00
82388;BME280;72027;47.420;9.310;2024-03-02T02:07:53;92324.47;;;2.03;100.00
82388;BME280;72027;47.420;9.310;2024-03-02T02:10:20;92328.38;;;2.02;100.00
82388;BME280;72027;47.420;9.310;2024-03-02T02:12:50;92324.88;;;2.01;100.00
82388;BME280;72027;47.420;9.310;2024-03-02T02:15:22;92332.66;;;2.03;100.00
82388;BME280;72027;47.420;9.310;2024-03-02T02:17:50;92329.03;;;2.06;100.00
82388;BME280;72027;47.420;9.310;2024-03-02T02:20:18;92327.50;;;2.05;100.00
82388;BME280;72027;47.420;9.310;2024-03-02T02:22:58;92325.56;;;2.05;100.00
82388;BME280;72027;47.420;9.310;2024-03-02T02:25:26;92320.50;;;2.04;100.00
82388;BME280;72027;47.420;9.310;2024-03-02T02:27:54;92322.50;;;2.03;100.00
82388;BME280;72027;47.420;9.310;2024-03-02T02:30:24;92322.16;;;2.01;100.00
82388;BME280;72027;47.420;9.310;2024-03-02T02:32:52;92314.41;;;2.00;99.77
82388;BME280;72027;47.420;9.310;2024-03-02T02:35:20;92316.06;;;1.97;100.00
82388;BME280;72027;47.420;9.310;2024-03-02T02:37:48;92311.91;;;1.92;100.00
82388;BME280;72027;47.420;9.310;2024-03-02T02:40:18;92312.31;;;1.91;99.82
82388;BME280;72027;47.420;9.310;2024-03-02T02:42:46;92317.03;;;1.90;100.00
82388;BME280;72027;47.420;9.310;2024-03-02T02:45:14;92313.66;;;1.86;99.97
82388;BME280;72027;47.420;9.310;2024-03-02T02:47:42;92312.22;;;1.82;99.94
82388;BME280;72027;47.420;9.310;2024-03-02T02:50:11;92308.81;;;1.77;100.00
82388;BME280;72027;47.420;9.310;2024-03-02T02:52:41;92310.47;;;1.75;100.00
82388;BME280;72027;47.420;9.310;2024-03-02T02:55:10;92311.34;;;1.72;100.00
82388;BME280;72027;47.420;9.310;2024-03-02T02:57:40;92307.19;;;1.67;100.00
82388;BME280;72027;47.420;9.310;2024-03-02T03:00:11;92316.25;;;1.64;100.00
82388;BME280;72027;47.420;9.310;2024-03-02T03:02:42;92306.97;;;1.62;100.00
82388;BME280;72027;47.420;9.310;2024-03-02T03:05:11;92305.88;;;1.59;100.00
82388;BME280;72027;47.420;9.310;2024-03-02T03:07:39;92313.75;;;1.57;100.00
82388;BME280;72027;47.420;9.310;2024-03-02T03:10:07;92318.13;;;1.54;100.00
82388;BME280;72027;47.420;9.310;2024-03-02T03:12:35;92320.84;;;1.54;100.00
82388;BME280;72027;47.420;9.310;2024-03-02T03:15:05;92319.28;;;1.53;100.00
82388;BME280;72027;47.420;9.310;2024-03-02T03:17:35;92317.00;;;1.52;100.00
82388;BME280;72027;47.420;9.310;2024-03-02T03:20:04;92317.44;;;1.50;100.00
82388;BME280;72027;47.420;9.310;2024-03-02T03:22:36;92322.56;;;1.48;100.00
82388;BME280;72027;47.420;9.310;2024-03-02T03:25:04;92323.00;;;1.47;100.00
82388;BME280;72027;47.420;9.310;2024-03-02T03:27:33;92319.94;;;1.45;100.00
82388;BME280;72027;47.420;9.310;2024-03-02T03:30:01;92327.38;;;1.44;100.00
82388;BME280;72027;47.420;9.310;2024-03-02T03:32:30;92331.28;;;1.43;100.00
82388;BME280;72027;47.420;9.310;2024-03-02T03:34:58;92330.97;;;1.41;100.00
82388;BME280;72027;47.420;9.310;2024-03-02T03:37:26;92323.31;;;1.36;100.00
82388;BME280;72027;47.420;9.310;2024-03-02T03:39:59;92326.59;;;1.31;100.00
82388;BME280;72027;47.420;9.310;2024-03-02T03:42:27;92328.22;;;1.28;100.00
82388;BME280;72027;47.420;9.310;2024-03-02T03:44:55;92328.63;;;1.27;100.00
82388;BME280;72027;47.420;9.310;2024-03-02T03:47:23;92327.44;;;1.28;100.00
82388;BME280;72027;47.420;9.310;2024-03-02T03:49:52;92335.19;;;1.29;100.00
82388;BME280;72027;47.420;9.310;2024-03-02T03:52:20;92334.44;;;1.29;100.00
82388;BME280;72027;47.420;9.310;2024-03-02T03:54:48;92325.91;;;1.27;100.00
82388;BME280;72027;47.420;9.310;2024-03-02T03:57:16;92323.63;;;1.25;100.00
82388;BME280;72027;47.420;9.310;2024-03-02T03:59:44;92320.78;;;1.29;100.00
82388;BME280;72027;47.420;9.310;2024-03-02T04:02:12;92326.59;;;1.31;100.00
82388;BME280;72027;47.420;9.310;2024-03-02T04:04:40;92327.75;;;1.30;100.00
82388;BME280;72027;47.420;9.310;2024-03-02T04:07:09;92320.78;;;1.29;100.00
82388;BME280;72027;47.420;9.310;2024-03-02T04:09:37;92321.22;;;1.27;100.00
82388;BME280;72027;47.420;9.310;2024-03-02T04:12:05;92327.44;;;1.28;100.00
82388;BME280;72027;47.420;9.310;2024-03-02T04:14:33;92327.00;;;1.29;100.00
82388;BME280;72027;47.420;9.310;2024-03-02T04:17:01;92315.66;;;1.31;100.00
82388;BME280;72027;47.420;9.310;2024-03-02T04:19:29;92323.09;;;1.30;100.00
82388;BME280;72027;47.420;9.310;2024-03-02T04:21:57;92322.31;;;1.30;100.00
82388;BME280;72027;47.420;9.310;2024-03-02T04:24:29;92319.59;;;1.30;100.00
82388;BME280;72027;47.420;9.310;2024-03-02T04:26:57;92312.59;;;1.29;100.00
82388;BME280;72027;47.420;9.310;2024-03-02T04:29:25;92315.75;;;1.27;100.00
82388;BME280;72027;47.420;9.310;2024-03-02T04:31:53;92312.72;;;1.25;100.00
82388;BME280;72027;47.420;9.310;2024-03-02T04:34:21;92308.00;;;1.26;100.00
82388;BME280;72027;47.420;9.310;2024-03-02T04:36:49;92311.50;;;1.26;100.00
82388;BME280;72027;47.420;9.310;2024-03-02T04:39:17;92312.72;;;1.25;100.00
82388;BME280;72027;47.420;9.310;2024-03-02T04:41:46;92315.00;;;1.27;100.00
82388;BME280;72027;47.420;9.310;2024-03-02T04:44:14;92317.72;;;1.27;100.00
82388;BME280;72027;47.420;9.310;2024-03-02T04:46:42;92315.34;;;1.29;100.00
82388;BME280;72027;47.420;9.310;2024-03-02T04:49:10;92319.59;;;1.30;100.00
82388;BME280;72027;47.420;9.310;2024-03-02T04:51:37;92312.94;;;1.31;100.00
82388;BME280;72027;47.420;9.310;2024-03-02T04:54:05;92317.94;;;1.32;100.00
82388;BME280;72027;47.420;9.310;2024-03-02T04:56:33;92314.78;;;1.34;100.00
82388;BME280;72027;47.420;9.310;2024-03-02T04:59:11;92316.31;;;1.35;100.00
82388;BME280;72027;47.420;9.310;2024-03-02T05:01:39;92320.25;;;1.34;100.00
82388;BME280;72027;47.420;9.310;2024-03-02T05:04:07;92317.53;;;1.34;100.00
82388;BME280;72027;47.420;9.310;2024-03-02T05:06:35;92331.50;;;1.36;100.00
82388;BME280;72027;47.420;9.310;2024-03-02T05:09:03;92327.56;;;1.37;100.00
82388;BME280;72027;47.420;9.310;2024-03-02T05:11:30;92331.50;;;1.36;100.00
82388;BME280;72027;47.420;9.310;2024-03-02T05:14:30;92328.00;;;1.36;100.00
82388;BME280;72027;47.420;9.310;2024-03-02T05:16:58;92322.97;;;1.34;100.00
82388;BME280;72027;47.420;9.310;2024-03-02T05:19:26;92324.50;;;1.35;100.00
82388;BME280;72027;47.420;9.310;2024-03-02T05:21:54;92324.94;;;1.34;100.00
82388;BME280;72027;47.420;9.310;2024-03-02T05:24:21;92332.81;;;1.31;100.00
82388;BME280;72027;47.420;9.310;2024-03-02T05:26:49;92331.69;;;1.29;100.00
82388;BME280;72027;47.420;9.310;2024-03-02T05:29:17;92340.66;;;1.29;100.00
82388;BME280;72027;47.420;9.310;2024-03-02T05:31:46;92327.13;;;1.26;100.00
82388;BME280;72027;47.420;9.310;2024-03-02T05:34:14;92328.28;;;1.25;100.00
82388;BME280;72027;47.420;9.310;2024-03-02T05:36:42;92328.00;;;1.23;100.00
82388;BME280;72027;47.420;9.310;2024-03-02T05:39:10;92321.75;;;1.22;100.00
82388;BME280;72027;47.420;9.310;2024-03-02T05:41:37;92335.38;;;1.22;100.00
82388;BME280;72027;47.420;9.310;2024-03-02T05:44:05;92335.38;;;1.22;100.00
82388;BME280;72027;47.420;9.310;2024-03-02T05:46:33;92334.63;;;1.22;100.00
82388;BME280;72027;47.420;9.310;2024-03-02T05:49:03;92328.84;;;1.20;100.00
82388;BME280;72027;47.420;9.310;2024-03-02T05:51:31;92333.53;;;1.19;100.00
82388;BME280;72027;47.420;9.310;2024-03-02T05:53:58;92335.94;;;1.17;100.00
82388;BME280;72027;47.420;9.310;2024-03-02T05:56:26;92340.19;;;1.18;100.00
82388;BME280;72027;47.420;9.310;2024-03-02T05:58:54;92340.19;;;1.18;100.00
82388;BME280;72027;47.420;9.310;2024-03-02T06:01:35;92339.44;;;1.18;100.00
82388;BME280;72027;47.420;9.310;2024-03-02T06:04:04;92340.59;;;1.17;100.00
82388;BME280;72027;47.420;9.310;2024-03-02T06:06:32;92343.34;;;1.17;100.00
82388;BME280;72027;47.420;9.310;2024-03-02T06:09:00;92341.81;;;1.16;100.00
82388;BME280;72027;47.420;9.310;2024-03-02T06:11:28;92339.09;;;1.16;100.00
82388;BME280;72027;47.420;9.310;2024-03-02T06:13:56;92339.50;;;1.14;100.00
82388;BME280;72027;47.420;9.310;2024-03-02T06:16:24;92341.13;;;1.12;100.00
82388;BME280;72027;47.420;9.310;2024-03-02T06:18:52;92348.22;;;1.09;100.00
82388;BME280;72027;47.420;9.310;2024-03-02T06:21:22;92350.28;;;1.05;100.00
82388;BME280;72027;47.420;9.310;2024-03-02T06:23:49;92341.44;;;1.01;100.00
82388;BME280;72027;47.420;9.310;2024-03-02T06:26:17;92343.84;;;0.99;100.00
82388;BME280;72027;47.420;9.310;2024-03-02T06:28:47;92348.50;;;0.98;100.00
82388;BME280;72027;47.420;9.310;2024-03-02T06:31:15;92349.72;;;0.97;100.00
82388;BME280;72027;47.420;9.310;2024-03-02T06:33:43;92353.19;;;0.98;100.00
82388;BME280;72027;47.420;9.310;2024-03-02T06:36:11;92358.25;;;0.99;100.00
82388;BME280;72027;47.420;9.310;2024-03-02T06:38:40;92355.06;;;1.01;100.00
82388;BME280;72027;47.420;9.310;2024-03-02T06:41:09;92363.25;;;1.01;100.00
82388;BME280;72027;47.420;9.310;2024-03-02T06:43:37;92356.97;;;1.04;100.00
82388;BME280;72027;47.420;9.310;2024-03-02T06:46:05;92359.22;;;1.05;100.00
82388;BME280;72027;47.420;9.310;2024-03-02T06:48:36;92358.47;;;1.05;100.00
82388;BME280;72027;47.420;9.310;2024-03-02T06:51:03;92349.88;;;1.06;100.00
82388;BME280;72027;47.420;9.310;2024-03-02T06:53:31;92353.34;;;1.07;100.00
82388;BME280;72027;47.420;9.310;2024-03-02T06:56:02;92358.38;;;1.08;100.00
82388;BME280;72027;47.420;9.310;2024-03-02T06:58:29;92354.00;;;1.11;100.00
82388;BME280;72027;47.420;9.310;2024-03-02T07:00:57;92350.41;;;1.14;100.00
82388;BME280;72027;47.420;9.310;2024-03-02T07:03:26;92356.22;;;1.16;100.00
82388;BME280;72027;47.420;9.310;2024-03-02T07:05:55;92350.75;;;1.16;100.00
82388;BME280;72027;47.420;9.310;2024-03-02T07:08:23;92348.78;;;1.17;100.00
82388;BME280;72027;47.420;9.310;2024-03-02T07:10:51;92353.41;;;1.20;100.00
82388;BME280;72027;47.420;9.310;2024-03-02T07:13:20;92354.47;;;1.22;100.00
82388;BME280;72027;47.420;9.310;2024-03-02T07:15:48;92356.69;;;1.27;100.00
82388;BME280;72027;47.420;9.310;2024-03-02T07:18:42;92364.56;;;1.38;100.00
82388;BME280;72027;47.420;9.310;2024-03-02T07:21:17;92359.38;;;1.44;100.00
82388;BME280;72027;47.420;9.310;2024-03-02T07:23:45;92365.81;;;1.50;100.00
82388;BME280;72027;47.420;9.310;2024-03-02T07:26:13;92364.81;;;1.57;100.00
82388;BME280;72027;47.420;9.310;2024-03-02T07:28:47;92368.56;;;1.63;99.98
82388;BME280;72027;47.420;9.310;2024-03-02T07:31:16;92371.06;;;1.70;100.00
82388;BME280;72027;47.420;9.310;2024-03-02T07:33:44;92378.31;;;1.76;100.00
82388;BME280;72027;47.420;9.310;2024-03-02T07:36:13;92374.28;;;1.81;100.00
82388;BME280;72027;47.420;9.310;2024-03-02T07:38:41;92371.00;;;1.86;99.36
82388;BME280;72027;47.420;9.310;2024-03-02T07:41:11;92369.66;;;1.91;99.46
82388;BME280;72027;47.420;9.310;2024-03-02T07:43:39;92367.16;;;1.96;98.77
82388;BME280;72027;47.420;9.310;2024-03-02T07:46:08;92361.16;;;2.02;98.73
82388;BME280;72027;47.420;9.310;2024-03-02T07:48:36;92354.72;;;2.08;99.45
82388;BME280;72027;47.420;9.310;2024-03-02T07:51:04;92363.13;;;2.14;98.48
82388;BME280;72027;47.420;9.310;2024-03-02T07:53:32;92358.97;;;2.22;98.96
82388;BME280;72027;47.420;9.310;2024-03-02T07:55:59;92355.47;;;2.34;98.64
82388;BME280;72027;47.420;9.310;2024-03-02T07:58:29;92351.72;;;2.54;98.08
82388;BME280;72027;47.420;9.310;2024-03-02T08:00:58;92342.31;;;2.90;97.26
82388;BME280;72027;47.420;9.310;2024-03-02T08:03:29;92349.53;;;3.40;97.12
82388;BME280;72027;47.420;9.310;2024-03-02T08:05:59;92349.09;;;3.95;95.32
82388;BME280;72027;47.420;9.310;2024-03-02T08:08:27;92351.00;;;4.57;92.82
82388;BME280;72027;47.420;9.310;2024-03-02T08:10:54;92346.66;;;5.15;90.54
82388;BME280;72027;47.420;9.310;2024-03-02T08:13:24;92346.75;;;5.76;89.20
82388;BME280;72027;47.420;9.310;2024-03-02T08:15:52;92339.78;;;6.26;85.50
82388;BME280;72027;47.420;9.310;2024-03-02T08:18:20;92338.97;;;6.68;84.01
82388;BME280;72027;47.420;9.310;2024-03-02T08:20:49;92339.44;;;6.91;82.88
82388;BME280;72027;47.420;9.310;2024-03-02T08:23:17;92344.59;;;6.98;81.57
82388;BME280;72027;47.420;9.310;2024-03-02T08:25:45;92341.03;;;7.06;78.61
82388;BME280;72027;47.420;9.310;2024-03-02T08:28:14;92333.47;;;7.16;77.65
82388;BME280;72027;47.420;9.310;2024-03-02T08:30:42;92324.47;;;7.31;78.39
82388;BME280;72027;47.420;9.310;2024-03-02T08:33:09;92327.81;;;7.49;77.44
82388;BME280;72027;47.420;9.310;2024-03-02T08:35:37;92328.81;;;7.61;77.54
82388;BME280;72027;47.420;9.310;2024-03-02T08:38:06;92328.25;;;7.72;76.39
82388;BME280;72027;47.420;9.310;2024-03-02T08:40:34;92322.34;;;7.79;76.08
82388;BME280;72027;47.420;9.310;2024-03-02T08:43:02;92324.44;;;7.99;76.47
82388;BME280;72027;47.420;9.310;2024-03-02T08:45:29;92328.44;;;8.28;76.68
82388;BME280;72027;47.420;9.310;2024-03-02T08:47:58;92317.75;;;8.50;74.53
82388;BME280;72027;47.420;9.310;2024-03-02T08:50:26;92313.88;;;8.77;74.66
82388;BME280;72027;47.420;9.310;2024-03-02T08:52:53;92310.53;;;9.09;73.97
82388;BME280;72027;47.420;9.310;2024-03-02T08:55:23;92309.69;;;9.43;71.21
82388;BME280;72027;47.420;9.310;2024-03-02T08:57:50;92306.72;;;9.73;69.29
82388;BME280;72027;47.420;9.310;2024-03-02T09:00:19;92303.44;;;9.95;69.61
82388;BME280;72027;47.420;9.310;2024-03-02T09:02:47;92297.59;;;10.19;69.15
82388;BME280;72027;47.420;9.310;2024-03-02T09:05:15;92300.84;;;10.44;69.27
82388;BME280;72027;47.420;9.310;2024-03-02T09:07:43;92292.72;;;10.72;68.57
82388;BME280;72027;47.420;9.310;2024-03-02T09:10:11;92285.28;;;10.95;67.86
82388;BME280;72027;47.420;9.310;2024-03-02T09:12:40;92284.13;;;11.13;65.76
82388;BME280;72027;47.420;9.310;2024-03-02T09:15:08;92283.22;;;11.38;66.48
82388;BME280;72027;47.420;9.310;2024-03-02T09:17:36;92272.72;;;11.65;64.03
82388;BME280;72027;47.420;9.310;2024-03-02T09:20:04;92277.59;;;11.87;64.27
82388;BME280;72027;47.420;9.310;2024-03-02T09:22:32;92275.59;;;12.16;63.84
82388;BME280;72027;47.420;9.310;2024-03-02T09:25:00;92274.09;;;12.48;62.93
82388;BME280;72027;47.420;9.310;2024-03-02T09:27:28;92266.97;;;12.81;61.51
82388;BME280;72027;47.420;9.310;2024-03-02T09:29:57;92261.59;;;13.00;60.44
82388;BME280;72027;47.420;9.310;2024-03-02T09:32:25;92246.66;;;13.14;59.72
82388;BME280;72027;47.420;9.310;2024-03-02T09:34:53;92253.16;;;13.39;59.82
82388;BME280;72027;47.420;9.310;2024-03-02T09:37:22;92248.22;;;13.68;59.78
82388;BME280;72027;47.420;9.310;2024-03-02T09:39:50;92246.28;;;13.93;57.41
82388;BME280;72027;47.420;9.310;2024-03-02T09:42:19;92238.22;;;14.25;57.98
82388;BME280;72027;47.420;9.310;2024-03-02T09:44:49;92236.22;;;14.56;57.00
82388;BME280;72027;47.420;9.310;2024-03-02T09:47:19;92228.63;;;14.81;55.76
82388;BME280;72027;47.420;9.310;2024-03-02T09:49:47;92224.50;;;14.88;55.20
82388;BME280;72027;47.420;9.310;2024-03-02T09:52:15;92223.59;;;14.80;55.68
82388;BME280;72027;47.420;9.310;2024-03-02T09:54:43;92218.59;;;14.72;57.12
82388;BME280;72027;47.420;9.310;2024-03-02T09:57:11;92203.38;;;14.73;56.63
82388;BME280;72027;47.420;9.310;2024-03-02T09:59:39;92201.50;;;14.57;55.15
82388;BME280;72027;47.420;9.310;2024-03-02T10:02:07;92200.53;;;14.49;56.13
82388;BME280;72027;47.420;9.310;2024-03-02T10:04:36;92200.06;;;14.45;55.34
82388;BME280;72027;47.420;9.310;2024-03-02T10:07:12;92202.88;;;14.45;55.42
82388;BME280;72027;47.420;9.310;2024-03-02T10:09:40;92194.13;;;14.29;53.65
82388;BME280;72027;47.420;9.310;2024-03-02T10:12:09;92176.56;;;14.10;53.84
82388;BME280;72027;47.420;9.310;2024-03-02T10:14:38;92185.03;;;13.93;55.15
82388;BME280;72027;47.420;9.310;2024-03-02T10:17:07;92183.22;;;13.65;53.68
82388;BME280;72027;47.420;9.310;2024-03-02T10:19:37;92181.63;;;13.34;53.52
82388;BME280;72027;47.420;9.310;2024-03-02T10:22:07;92185.19;;;13.29;55.06
82388;BME280;72027;47.420;9.310;2024-03-02T10:24:36;92171.00;;;13.38;55.40
82388;BME280;72027;47.420;9.310;2024-03-02T10:27:09;92174.75;;;13.47;55.24
82388;BME280;72027;47.420;9.310;2024-03-02T10:29:38;92167.63;;;13.51;56.15
82388;BME280;72027;47.420;9.310;2024-03-02T10:32:09;92168.88;;;13.50;55.49
82388;BME280;72027;47.420;9.310;2024-03-02T10:34:39;92155.47;;;13.54;56.00
82388;BME280;72027;47.420;9.310;2024-03-02T10:37:08;92157.25;;;13.52;54.53
82388;BME280;72027;47.420;9.310;2024-03-02T10:39:37;92154.19;;;13.55;55.01
82388;BME280;72027;47.420;9.310;2024-03-02T10:42:07;92153.09;;;13.28;56.03
82388;BME280;72027;47.420;9.310;2024-03-02T10:44:35;92147.41;;;12.98;55.40
82388;BME280;72027;47.420;9.310;2024-03-02T10:47:04;92153.34;;;12.55;55.06
82388;BME280;72027;47.420;9.310;2024-03-02T10:49:33;92132.03;;;12.05;56.19
82388;BME280;72027;47.420;9.310;2024-03-02T10:52:02;92133.25;;;11.64;57.06
82388;BME280;72027;47.420;9.310;2024-03-02T10:54:30;92141.78;;;11.21;57.67
82388;BME280;72027;47.420;9.310;2024-03-02T10:57:04;92135.66;;;10.89;60.16
82388;BME280;72027;47.420;9.310;2024-03-02T10:59:37;92138.88;;;10.71;59.94
82388;BME280;72027;47.420;9.310;2024-03-02T11:02:06;92129.97;;;10.50;60.88
82388;BME280;72027;47.420;9.310;2024-03-02T11:04:38;92122.06;;;10.31;59.52
82388;BME280;72027;47.420;9.310;2024-03-02T11:07:10;92121.94;;;10.09;61.21
82388;BME280;72027;47.420;9.310;2024-03-02T11:09:41;92123.81;;;9.91;61.38
82388;BME280;72027;47.420;9.310;2024-03-02T11:12:19;92119.94;;;9.72;62.56
82388;BME280;72027;47.420;9.310;2024-03-02T11:14:51;92125.16;;;9.64;63.47
82388;BME280;72027;47.420;9.310;2024-03-02T11:17:19;92115.78;;;9.56;63.20
82388;BME280;72027;47.420;9.310;2024-03-02T11:19:47;92116.78;;;9.53;63.57
82388;BME280;72027;47.420;9.310;2024-03-02T11:22:17;92115.28;;;9.52;61.99
82388;BME280;72027;47.420;9.310;2024-03-02T11:24:49;92111.72;;;9.52;63.49
82388;BME280;72027;47.420;9.310;2024-03-02T11:30:50;92107.06;;;9.63;61.50
82388;BME280;72027;47.420;9.310;2024-03-02T11:33:26;92106.84;;;9.73;60.99
82388;BME280;72027;47.420;9.310;2024-03-02T11:35:56;92099.59;;;9.75;60.78
82388;BME280;72027;47.420;9.310;2024-03-02T11:38:31;92092.03;;;9.76;61.70
82388;BME280;72027;47.420;9.310;2024-03-02T11:41:01;92096.63;;;9.79;61.29
82388;BME280;72027;47.420;9.310;2024-03-02T11:43:30;92091.31;;;9.81;60.81
82388;BME280;72027;47.420;9.310;2024-03-02T11:46:00;92098.16;;;9.85;59.79
82388;BME280;72027;47.420;9.310;2024-03-02T11:48:31;92095.72;;;9.99;60.40
82388;BME280;72027;47.420;9.310;2024-03-02T11:51:00;92093.75;;;10.10;60.29
82388;BME280;72027;47.420;9.310;2024-03-02T11:53:28;92093.56;;;10.20;60.89
82388;BME280;72027;47.420;9.310;2024-03-02T11:56:01;92095.06;;;10.21;61.65
82388;BME280;72027;47.420;9.310;2024-03-02T11:58:30;92097.34;;;10.22;62.58
82388;BME280;72027;47.420;9.310;2024-03-02T12:00:57;92090.06;;;10.25;62.54
82388;BME280;72027;47.420;9.310;2024-03-02T12:03:26;92093.97;;;10.01;63.59
82388;BME280;72027;47.420;9.310;2024-03-02T12:05:54;92082.56;;;9.88;64.86
82388;BME280;72027;47.420;9.310;2024-03-02T12:08:22;92084.53;;;9.76;65.38
82388;BME280;72027;47.420;9.310;2024-03-02T12:10:58;92081.81;;;9.87;67.36
82388;BME280;72027;47.420;9.310;2024-03-02T12:13:28;92075.69;;;10.15;67.50
82388;BME280;72027;47.420;9.310;2024-03-02T12:15:56;92083.91;;;10.47;65.74
82388;BME280;72027;47.420;9.310;2024-03-02T12:18:24;92082.72;;;10.76;66.05
82388;BME280;72027;47.420;9.310;2024-03-02T12:20:53;92063.91;;;11.08;66.58
82388;BME280;72027;47.420;9.310;2024-03-02T12:23:24;92061.16;;;11.48;63.33
82388;BME280;72027;47.420;9.310;2024-03-02T12:25:52;92054.59;;;11.67;63.22
82388;BME280;72027;47.420;9.310;2024-03-02T12:28:21;92051.56;;;11.77;62.47
82388;BME280;72027;47.420;9.310;2024-03-02T12:30:50;92049.78;;;11.96;62.30
82388;BME280;72027;47.420;9.310;2024-03-02T12:33:19;92051.47;;;12.27;60.30
82388;BME280;72027;47.420;9.310;2024-03-02T12:35:49;92030.38;;;12.54;57.56
82388;BME280;72027;47.420;9.310;2024-03-02T12:38:17;92039.13;;;12.75;57.24
82388;BME280;72027;47.420;9.310;2024-03-02T12:40:44;92033.41;;;13.04;56.96
82388;BME280;72027;47.420;9.310;2024-03-02T12:43:12;92036.75;;;13.32;56.75
82388;BME280;72027;47.420;9.310;2024-03-02T12:45:40;92044.09;;;13.35;55.94
82388;BME280;72027;47.420;9.310;2024-03-02T12:48:09;92036.41;;;13.47;55.79
82388;BME280;72027;47.420;9.310;2024-03-02T12:50:37;92033.72;;;13.66;55.00
82388;BME280;72027;47.420;9.310;2024-03-02T12:53:05;92030.78;;;13.83;53.99
82388;BME280;72027;47.420;9.310;2024-03-02T12:55:34;92024.50;;;14.01;53.84
82388;BME280;72027;47.420;9.310;2024-03-02T12:58:03;92025.03;;;14.24;52.86
82388;BME280;72027;47.420;9.310;2024-03-02T13:00:31;92018.44;;;14.46;51.79
82388;BME280;72027;47.420;9.310;2024-03-02T13:03:02;92018.72;;;14.67;51.51
82388;BME280;72027;47.420;9.310;2024-03-02T13:05:32;92013.69;;;14.85;51.98
82388;BME280;72027;47.420;9.310;2024-03-02T13:08:00;92011.56;;;14.91;51.51
82388;BME280;72027;47.420;9.310;2024-03-02T13:10:30;92012.78;;;14.77;52.22
82388;BME280;72027;47.420;9.310;2024-03-02T13:12:58;92007.13;;;14.63;52.38
82388;BME280;72027;47.420;9.310;2024-03-02T13:15:27;92004.00;;;14.48;53.50